createdAt,value
2023-03-02T00:01:20.294Z,99.60
2023-03-02T00:03:46.903Z,99.70
2023-03-02T00:06:13.438Z,99.70
2023-03-02T00:08:39.959Z,99.80
2023-03-02T00:11:06.457Z,99.80
2023-03-02T00:13:32.980Z,99.90
2023-03-02T00:15:59.577Z,99.90
2023-03-02T00:18:26.070Z,99.90
2023-03-02T00:20:52.578Z,99.90
2023-03-02T00:23:19.160Z,99.90
2023-03-02T00:25:45.696Z,99.90
2023-03-02T00:28:12.301Z,99.90
2023-03-02T00:30:38.768Z,99.90
2023-03-02T00:33:05.297Z,99.90
2023-03-02T00:35:31.825Z,99.90
2023-03-02T00:37:58.352Z,99.90
2023-03-02T00:40:24.940Z,99.90
2023-03-02T00:42:51.446Z,99.90
2023-03-02T00:45:17.935Z,99.90
2023-03-02T00:47:44.425Z,99.90
2023-03-02T00:50:10.919Z,99.90
2023-03-02T00:52:37.518Z,99.90
2023-03-02T00:55:04.014Z,99.90
2023-03-02T00:57:30.564Z,99.90
2023-03-02T00:59:57.161Z,99.70
2023-03-02T01:02:23.824Z,99.40
2023-03-02T01:04:50.512Z,99.30
2023-03-02T01:07:17.073Z,98.90
2023-03-02T01:09:43.548Z,98.70
2023-03-02T01:12:11.204Z,98.20
2023-03-02T01:14:37.747Z,98.10
2023-03-02T01:17:04.271Z,97.70
2023-03-02T01:19:30.916Z,97.60
2023-03-02T01:21:57.444Z,97.60
2023-03-02T01:24:23.934Z,97.80
2023-03-02T01:26:50.490Z,97.90
2023-03-02T01:29:17.048Z,98.10
2023-03-02T01:31:43.593Z,98.30
2023-03-02T01:34:10.149Z,98.60
2023-03-02T01:36:36.656Z,98.80
2023-03-02T01:39:03.310Z,99.20
2023-03-02T01:41:29.997Z,99.40
2023-03-02T01:43:56.536Z,99.50
2023-03-02T01:46:23.012Z,99.70
2023-03-02T01:48:49.521Z,99.70
2023-03-02T01:51:16.021Z,99.90
2023-03-02T01:53:46.501Z,99.90
2023-03-02T01:56:13.002Z,99.90
2023-03-02T01:58:39.547Z,99.90
2023-03-02T02:01:06.100Z,99.90
2023-03-02T02:03:32.655Z,99.90
2023-03-02T02:05:59.173Z,99.90
2023-03-02T02:08:25.688Z,99.90
2023-03-02T02:10:52.171Z,99.90
2023-03-02T02:13:18.652Z,99.90
2023-03-02T02:15:45.158Z,99.90
2023-03-02T02:18:11.745Z,99.90
2023-03-02T02:20:38.291Z,99.90
2023-03-02T02:23:04.797Z,99.90
2023-03-02T02:25:31.351Z,99.90
2023-03-02T02:27:57.874Z,99.90
2023-03-02T02:30:24.373Z,99.90
2023-03-02T02:32:51.940Z,99.90
2023-03-02T02:35:18.486Z,99.90
2023-03-02T02:37:45.261Z,99.90
2023-03-02T02:40:11.736Z,99.90
2023-03-02T02:42:38.332Z,99.90
2023-03-02T02:45:04.827Z,99.90
2023-03-02T02:47:31.337Z,99.90
2023-03-02T02:49:57.865Z,99.90
2023-03-02T02:52:26.654Z,99.90
2023-03-02T02:54:53.187Z,99.90
2023-03-02T02:57:19.745Z,99.90
2023-03-02T02:59:46.283Z,99.90
2023-03-02T03:02:12.757Z,99.90
2023-03-02T03:04:39.368Z,99.90
2023-03-02T03:07:05.887Z,99.90
2023-03-02T03:09:32.451Z,99.90
2023-03-02T03:11:58.992Z,99.90
2023-03-02T03:14:25.541Z,99.90
2023-03-02T03:16:52.195Z,99.90
2023-03-02T03:19:18.732Z,99.90
2023-03-02T03:21:45.388Z,99.90
2023-03-02T03:24:11.894Z,99.90
2023-03-02T03:26:38.378Z,99.90
2023-03-02T03:29:04.953Z,99.90
2023-03-02T03:31:31.488Z,99.90
2023-03-02T03:34:00.472Z,99.90
2023-03-02T03:36:26.968Z,99.90
2023-03-02T03:38:53.451Z,99.90
2023-03-02T03:41:19.972Z,99.90
2023-03-02T03:43:46.539Z,99.90
2023-03-02T03:46:13.088Z,99.90
2023-03-02T03:48:39.658Z,99.90
2023-03-02T03:51:06.148Z,99.90
2023-03-02T03:53:32.646Z,99.90
2023-03-02T03:55:59.202Z,99.90
2023-03-02T03:58:25.770Z,99.90
2023-03-02T04:00:52.364Z,99.90
2023-03-02T04:03:19.700Z,99.90
2023-03-02T04:05:46.200Z,99.90
2023-03-02T04:08:12.867Z,99.90
2023-03-02T04:10:39.400Z,99.90
2023-03-02T04:13:05.921Z,99.90
2023-03-02T04:15:32.465Z,99.90
2023-03-02T04:17:59.032Z,99.90
2023-03-02T04:20:25.536Z,99.90
2023-03-02T04:22:52.023Z,99.90
2023-03-02T04:25:19.707Z,99.90
2023-03-02T04:30:27.850Z,99.90
2023-03-02T04:32:54.662Z,99.90
2023-03-02T04:35:21.251Z,99.90
2023-03-02T04:37:47.813Z,99.90
2023-03-02T04:40:14.399Z,99.90
2023-03-02T04:42:41.680Z,99.90
2023-03-02T04:45:08.302Z,99.90
2023-03-02T04:47:34.777Z,99.90
2023-03-02T04:50:04.431Z,99.90
2023-03-02T04:52:30.916Z,99.90
2023-03-02T04:54:57.452Z,99.90
2023-03-02T04:57:23.981Z,99.90
2023-03-02T04:59:50.468Z,99.90
2023-03-02T05:02:17.392Z,99.90
2023-03-02T05:04:43.998Z,99.90
2023-03-02T05:07:10.537Z,99.90
2023-03-02T05:09:37.144Z,99.90
2023-03-02T05:12:03.693Z,99.90
2023-03-02T05:14:30.456Z,99.90
2023-03-02T05:16:56.939Z,99.90
2023-03-02T05:19:23.441Z,99.90
2023-03-02T05:21:50.054Z,99.90
2023-03-02T05:24:16.703Z,99.90
2023-03-02T05:26:43.281Z,99.90
2023-03-02T05:29:09.744Z,99.80
2023-03-02T05:31:36.393Z,99.90
2023-03-02T05:34:03.002Z,99.90
2023-03-02T05:36:29.591Z,99.90
2023-03-02T05:38:56.074Z,99.80
2023-03-02T05:41:22.607Z,99.90
2023-03-02T05:43:49.184Z,99.70
2023-03-02T05:46:17.162Z,99.70
2023-03-02T05:48:43.834Z,99.50
2023-03-02T05:51:10.317Z,99.50
2023-03-02T05:53:36.812Z,99.30
2023-03-02T05:56:04.018Z,99.30
2023-03-02T05:58:30.554Z,99.20
2023-03-02T06:00:57.075Z,99.20
2023-03-02T06:03:23.673Z,99.00
2023-03-02T06:05:50.772Z,99.00
2023-03-02T06:08:17.990Z,99.10
2023-03-02T06:10:44.560Z,99.20
2023-03-02T06:13:11.069Z,99.20
2023-03-02T06:15:39.596Z,99.10
2023-03-02T06:18:06.153Z,99.10
2023-03-02T06:20:32.670Z,99.20
2023-03-02T06:22:59.196Z,98.90
2023-03-02T06:25:25.685Z,98.80
2023-03-02T06:27:53.529Z,98.80
2023-03-02T06:30:20.021Z,98.90
2023-03-02T06:32:46.931Z,98.80
2023-03-02T06:35:13.567Z,98.60
2023-03-02T06:37:41.762Z,98.70
2023-03-02T06:40:13.569Z,98.80
2023-03-02T06:42:40.174Z,98.60
2023-03-02T06:45:06.695Z,98.60
2023-03-02T06:47:33.348Z,98.50
2023-03-02T06:49:59.841Z,98.60
2023-03-02T06:52:27.411Z,98.60
2023-03-02T06:54:53.899Z,98.60
2023-03-02T06:57:20.365Z,98.50
2023-03-02T06:59:46.955Z,98.20
2023-03-02T07:02:13.520Z,98.10
2023-03-02T07:04:40.050Z,97.90
2023-03-02T07:07:06.534Z,98.00
2023-03-02T07:09:33.847Z,98.10
2023-03-02T07:12:00.480Z,98.00
2023-03-02T07:14:26.949Z,97.90
2023-03-02T07:16:53.585Z,97.90
2023-03-02T07:19:20.224Z,97.90
2023-03-02T07:21:46.698Z,98.20
2023-03-02T07:24:13.254Z,97.80
2023-03-02T07:26:39.760Z,97.80
2023-03-02T07:29:06.276Z,97.90
2023-03-02T07:31:33.006Z,97.70
2023-03-02T07:33:59.715Z,97.80
2023-03-02T07:36:26.326Z,97.60
2023-03-02T07:38:52.864Z,97.60
2023-03-02T07:41:19.441Z,97.40
2023-03-02T07:43:46.026Z,96.90
2023-03-02T07:46:12.669Z,96.80
2023-03-02T07:48:39.221Z,96.80
2023-03-02T07:51:05.806Z,96.70
2023-03-02T07:53:32.317Z,96.20
2023-03-02T07:56:00.796Z,96.30
2023-03-02T07:58:27.340Z,96.50
2023-03-02T08:00:53.959Z,96.70
2023-03-02T08:03:20.466Z,95.80
2023-03-02T08:05:47.263Z,96.10
2023-03-02T08:08:13.874Z,95.70
2023-03-02T08:10:40.421Z,95.30
2023-03-02T08:13:07.252Z,94.70
2023-03-02T08:15:33.746Z,94.20
2023-03-02T08:18:00.274Z,93.90
2023-03-02T08:20:26.809Z,93.80
2023-03-02T08:22:53.369Z,93.70
2023-03-02T08:25:20.143Z,93.80
2023-03-02T08:27:46.699Z,93.40
2023-03-02T08:30:13.156Z,92.70
2023-03-02T08:32:39.753Z,92.50
2023-03-02T08:35:06.337Z,91.70
2023-03-02T08:37:32.860Z,90.80
2023-03-02T08:39:59.330Z,91.60
2023-03-02T08:42:25.845Z,91.60
2023-03-02T08:44:52.316Z,92.00
2023-03-02T08:47:18.838Z,91.40
2023-03-02T08:49:47.491Z,91.60
2023-03-02T08:52:15.255Z,91.20
2023-03-02T08:54:42.030Z,91.20
2023-03-02T08:57:08.559Z,90.40
2023-03-02T08:59:35.043Z,90.30
2023-03-02T09:02:01.562Z,90.70
2023-03-02T09:04:28.097Z,90.50
2023-03-02T09:06:54.597Z,90.30
2023-03-02T09:09:21.103Z,90.30
2023-03-02T09:11:48.280Z,90.10
2023-03-02T09:14:14.893Z,88.60
2023-03-02T09:16:41.396Z,87.00
2023-03-02T09:19:07.930Z,88.10
2023-03-02T09:21:34.859Z,85.90
2023-03-02T09:24:01.658Z,84.70
2023-03-02T09:26:28.247Z,83.70
2023-03-02T09:28:57.130Z,85.30
2023-03-02T09:31:23.870Z,86.50
2023-03-02T09:33:50.480Z,83.40
2023-03-02T09:36:16.964Z,84.90
2023-03-02T09:38:43.492Z,84.10
2023-03-02T09:41:09.954Z,80.50
2023-03-02T09:43:36.436Z,76.90
2023-03-02T09:46:02.950Z,80.30
2023-03-02T09:48:29.528Z,81.10
2023-03-02T09:50:56.350Z,81.00
2023-03-02T09:53:22.921Z,78.10
2023-03-02T09:55:49.398Z,76.60
2023-03-02T09:58:15.904Z,75.90
2023-03-02T10:00:43.804Z,72.20
2023-03-02T10:03:17.219Z,73.90
2023-03-02T10:05:44.138Z,75.30
2023-03-02T10:08:10.625Z,72.60
2023-03-02T10:10:37.082Z,75.60
2023-03-02T10:13:03.655Z,73.80
2023-03-02T10:15:30.389Z,70.70
2023-03-02T10:17:56.893Z,76.20
2023-03-02T10:20:23.404Z,71.40
2023-03-02T10:22:49.931Z,72.30
2023-03-02T10:25:16.436Z,66.00
2023-03-02T10:27:43.011Z,69.20
2023-03-02T10:30:09.551Z,70.80
2023-03-02T10:32:36.191Z,67.40
2023-03-02T10:35:02.740Z,67.80
2023-03-02T10:37:29.228Z,68.70
2023-03-02T10:39:55.746Z,68.10
2023-03-02T10:42:22.343Z,65.80
2023-03-02T10:44:48.944Z,64.20
2023-03-02T10:47:15.483Z,64.60
2023-03-02T10:49:41.980Z,67.80
2023-03-02T10:52:08.513Z,70.90
2023-03-02T10:54:36.644Z,74.00
2023-03-02T10:57:03.162Z,72.70
2023-03-02T10:59:29.684Z,70.20
2023-03-02T11:01:56.234Z,70.40
2023-03-02T11:04:22.830Z,69.90
2023-03-02T11:06:49.322Z,71.40
2023-03-02T11:09:15.889Z,71.00
2023-03-02T11:11:42.371Z,70.30
2023-03-02T11:14:08.962Z,68.70
2023-03-02T11:16:35.523Z,68.50
2023-03-02T11:19:02.005Z,72.70
2023-03-02T11:21:28.494Z,68.00
2023-03-02T11:23:55.012Z,69.30
2023-03-02T11:26:21.519Z,71.40
2023-03-02T11:28:48.040Z,71.80
2023-03-02T11:31:14.594Z,69.60
2023-03-02T11:33:41.164Z,70.60
2023-03-02T11:36:07.824Z,67.60
2023-03-02T11:38:34.351Z,68.60
2023-03-02T11:41:01.050Z,65.60
2023-03-02T11:43:27.558Z,63.70
2023-03-02T11:45:54.272Z,62.50
2023-03-02T11:48:22.283Z,63.90
2023-03-02T11:50:48.763Z,63.60
2023-03-02T11:53:15.343Z,64.60
2023-03-02T11:55:42.056Z,62.20
2023-03-02T11:58:08.536Z,61.30
2023-03-02T12:00:35.033Z,59.90
2023-03-02T12:03:01.631Z,60.50
2023-03-02T12:05:28.149Z,57.00
2023-03-02T12:07:54.692Z,58.60
2023-03-02T12:10:21.263Z,62.00
2023-03-02T12:12:47.856Z,55.00
2023-03-02T12:15:14.327Z,56.30
2023-03-02T12:17:40.861Z,52.20
2023-03-02T12:20:07.359Z,51.90
2023-03-02T12:22:33.835Z,51.60
2023-03-02T12:25:00.330Z,53.20
2023-03-02T12:27:26.938Z,53.90
2023-03-02T12:29:53.465Z,50.30
2023-03-02T12:32:19.978Z,52.30
2023-03-02T12:34:46.471Z,50.00
2023-03-02T12:37:13.018Z,49.70
2023-03-02T12:39:40.103Z,51.10
2023-03-02T12:42:06.612Z,49.50
2023-03-02T12:44:33.193Z,49.60
2023-03-02T12:47:01.012Z,51.20
2023-03-02T12:49:28.276Z,53.30
2023-03-02T12:51:54.926Z,54.20
2023-03-02T12:54:21.497Z,54.40
2023-03-02T12:56:48.061Z,54.50
2023-03-02T12:59:14.540Z,54.20
2023-03-02T13:01:41.025Z,54.40
2023-03-02T13:04:07.583Z,52.60
2023-03-02T13:06:34.447Z,53.40
2023-03-02T13:09:01.125Z,51.20
2023-03-02T13:11:27.808Z,51.90
2023-03-02T13:13:54.281Z,52.00
2023-03-02T13:16:21.131Z,52.50
2023-03-02T13:18:49.348Z,54.30
2023-03-02T13:21:15.849Z,54.70
2023-03-02T13:23:42.324Z,54.10
2023-03-02T13:26:08.841Z,55.20
2023-03-02T13:28:35.370Z,57.80
2023-03-02T13:31:02.073Z,55.80
2023-03-02T13:33:28.742Z,56.10
2023-03-02T13:35:56.072Z,57.60
2023-03-02T13:38:22.582Z,58.30
2023-03-02T13:40:49.426Z,58.10
2023-03-02T13:43:16.009Z,57.00
2023-03-02T13:45:42.523Z,58.00
2023-03-02T13:48:09.098Z,58.30
2023-03-02T13:50:35.588Z,58.70
2023-03-02T13:53:04.033Z,59.50
2023-03-02T13:55:30.636Z,59.40
2023-03-02T13:57:57.157Z,59.60
2023-03-02T14:00:23.885Z,60.80
2023-03-02T14:02:50.477Z,61.80
2023-03-02T14:05:17.095Z,61.80
2023-03-02T14:07:43.867Z,59.60
2023-03-02T14:10:10.349Z,58.50
2023-03-02T14:12:36.881Z,58.60
2023-03-02T14:15:03.444Z,59.70
2023-03-02T14:17:29.972Z,61.40
2023-03-02T14:19:56.546Z,59.00
2023-03-02T14:22:23.185Z,60.60
2023-03-02T14:24:49.748Z,60.80
2023-03-02T14:27:16.395Z,61.70
2023-03-02T14:29:42.853Z,61.70
2023-03-02T14:32:09.433Z,62.50
2023-03-02T14:34:39.084Z,60.00
2023-03-02T14:37:05.656Z,60.00
2023-03-02T14:39:32.145Z,60.00
2023-03-02T14:41:58.982Z,61.10
2023-03-02T14:44:25.795Z,62.10
2023-03-02T14:46:53.032Z,61.20
2023-03-02T14:49:19.664Z,60.90
2023-03-02T14:51:46.146Z,61.40
2023-03-02T14:54:12.695Z,64.10
2023-03-02T14:56:39.217Z,63.80
2023-03-02T14:59:05.719Z,64.30
2023-03-02T15:01:32.573Z,64.90
2023-03-02T15:03:59.324Z,65.20
2023-03-02T15:06:26.342Z,65.80
2023-03-02T15:08:52.962Z,66.70
2023-03-02T15:11:19.440Z,64.40
2023-03-02T15:13:46.060Z,64.80
2023-03-02T15:16:12.580Z,64.70
2023-03-02T15:18:39.104Z,64.20
2023-03-02T15:21:05.645Z,64.40
2023-03-02T15:23:32.830Z,66.70
2023-03-02T15:25:59.749Z,66.90
2023-03-02T15:28:26.304Z,67.60
2023-03-02T15:30:52.794Z,68.10
2023-03-02T15:33:19.323Z,67.40
2023-03-02T15:35:46.116Z,68.00
2023-03-02T15:38:12.617Z,68.70
2023-03-02T15:40:39.099Z,69.20
2023-03-02T15:43:05.577Z,68.80
2023-03-02T15:45:32.161Z,68.60
2023-03-02T15:47:58.926Z,68.10
2023-03-02T15:50:25.486Z,69.20
2023-03-02T15:52:52.027Z,69.30
2023-03-02T15:55:18.588Z,69.50
2023-03-02T15:57:45.112Z,69.90
2023-03-02T16:00:13.476Z,70.10
2023-03-02T16:02:40.663Z,71.00
2023-03-02T16:05:07.192Z,71.30
2023-03-02T16:07:34.324Z,71.50
2023-03-02T16:10:00.958Z,71.70
2023-03-02T16:12:27.493Z,72.20
2023-03-02T16:14:54.065Z,73.40
2023-03-02T16:17:21.313Z,73.20
2023-03-02T16:19:47.793Z,72.60
2023-03-02T16:22:14.332Z,72.90
2023-03-02T16:24:41.885Z,73.40
2023-03-02T16:27:08.476Z,73.30
2023-03-02T16:29:34.996Z,73.70
2023-03-02T16:32:01.716Z,74.40
2023-03-02T16:34:28.471Z,75.20
2023-03-02T16:36:54.961Z,74.10
2023-03-02T16:39:21.579Z,75.30
2023-03-02T16:41:48.082Z,76.60
2023-03-02T16:44:14.614Z,77.20
2023-03-02T16:46:43.260Z,78.10
2023-03-02T16:49:09.774Z,77.80
2023-03-02T16:51:36.297Z,78.60
2023-03-02T16:54:02.888Z,79.10
2023-03-02T16:56:29.382Z,80.10
2023-03-02T16:58:56.934Z,80.70
2023-03-02T17:01:24.838Z,81.00
2023-03-02T17:03:51.374Z,81.50
2023-03-02T17:06:17.925Z,82.80
2023-03-02T17:08:44.482Z,84.20
2023-03-02T17:11:11.014Z,84.90
2023-03-02T17:13:37.538Z,86.20
2023-03-02T17:16:04.250Z,87.30
2023-03-02T17:18:30.822Z,88.70
2023-03-02T17:20:57.289Z,90.20
2023-03-02T17:23:23.849Z,90.70
2023-03-02T17:25:50.341Z,91.10
2023-03-02T17:28:16.869Z,91.50
2023-03-02T17:30:43.420Z,92.30
2023-03-02T17:33:09.987Z,92.30
2023-03-02T17:35:39.441Z,92.80
2023-03-02T17:38:06.003Z,93.40
2023-03-02T17:40:32.505Z,94.40
2023-03-02T17:42:58.968Z,95.90
2023-03-02T17:45:25.619Z,97.40
2023-03-02T17:47:52.140Z,99.00
2023-03-02T17:52:46.548Z,99.90
2023-03-02T17:55:13.700Z,99.90
2023-03-02T17:57:40.201Z,99.90
2023-03-02T18:00:06.789Z,99.90
2023-03-02T18:02:33.302Z,99.90
2023-03-02T18:04:59.787Z,99.90
2023-03-02T18:07:26.260Z,99.90
2023-03-02T18:09:52.776Z,99.90
2023-03-02T18:12:19.273Z,99.90
2023-03-02T18:14:45.773Z,99.90
2023-03-02T18:17:12.375Z,99.90
2023-03-02T18:19:38.837Z,99.90
2023-03-02T18:22:05.452Z,99.90
2023-03-02T18:24:32.020Z,99.90
2023-03-02T18:26:58.504Z,99.90
2023-03-02T18:29:25.048Z,99.90
2023-03-02T18:31:53.110Z,99.90
2023-03-02T18:34:19.878Z,99.90
2023-03-02T18:36:46.443Z,99.90
2023-03-02T18:39:13.117Z,99.90
2023-03-02T18:41:39.706Z,99.90
2023-03-02T18:44:06.195Z,99.90
2023-03-02T18:46:32.835Z,99.90
2023-03-02T18:49:00.769Z,99.90
2023-03-02T18:51:27.242Z,99.90
2023-03-02T18:53:53.734Z,99.90
2023-03-02T18:56:20.311Z,99.90
2023-03-02T18:58:47.034Z,99.90
2023-03-02T19:01:13.682Z,99.90
2023-03-02T19:03:41.639Z,99.90
2023-03-02T19:06:08.155Z,99.90
2023-03-02T19:08:35.363Z,99.90
2023-03-02T19:11:01.949Z,99.90
2023-03-02T19:13:28.688Z,99.90
2023-03-02T19:15:55.325Z,99.90
2023-03-02T19:18:21.864Z,99.90
2023-03-02T19:20:48.402Z,99.90
2023-03-02T19:23:14.879Z,99.90
2023-03-02T19:25:41.410Z,99.90
2023-03-02T19:28:07.916Z,99.90
2023-03-02T19:30:34.970Z,99.90
2023-03-02T19:33:01.823Z,99.90
2023-03-02T19:35:28.488Z,99.90
2023-03-02T19:37:55.209Z,99.90
2023-03-02T19:40:21.821Z,99.90
2023-03-02T19:42:48.398Z,99.90
2023-03-02T19:45:14.877Z,99.90
2023-03-02T19:47:41.367Z,99.90
2023-03-02T19:50:07.870Z,99.90
2023-03-02T19:52:34.351Z,99.90
2023-03-02T19:55:00.882Z,99.90
2023-03-02T19:57:27.427Z,99.90
2023-03-02T19:59:54.333Z,99.90
2023-03-02T20:02:20.873Z,99.90
2023-03-02T20:04:48.788Z,99.90
2023-03-02T20:07:15.280Z,99.90
2023-03-02T20:09:42.336Z,99.90
2023-03-02T20:12:09.337Z,99.90
2023-03-02T20:14:35.990Z,99.90
2023-03-02T20:17:02.565Z,99.90
2023-03-02T20:19:29.233Z,99.90
2023-03-02T20:21:55.718Z,99.90
2023-03-02T20:24:22.227Z,99.90
2023-03-02T20:26:48.942Z,99.90
2023-03-02T20:29:15.447Z,99.90
2023-03-02T20:31:41.950Z,99.90
2023-03-02T20:34:08.595Z,99.90
2023-03-02T20:36:35.181Z,99.90
2023-03-02T20:39:01.799Z,99.90
2023-03-02T20:41:28.349Z,99.90
2023-03-02T20:43:54.957Z,99.90
2023-03-02T20:46:21.485Z,99.90
2023-03-02T20:48:48.028Z,99.90
2023-03-02T20:51:14.561Z,99.90
2023-03-02T20:53:41.095Z,99.90
2023-03-02T20:56:07.927Z,99.90
2023-03-02T20:58:35.501Z,99.90
2023-03-02T21:01:02.543Z,99.90
2023-03-02T21:03:29.203Z,99.90
2023-03-02T21:05:55.687Z,99.90
2023-03-02T21:08:22.184Z,99.90
2023-03-02T21:10:49.055Z,99.90
2023-03-02T21:13:15.717Z,99.90
2023-03-02T21:15:44.196Z,99.90
2023-03-02T21:18:10.694Z,99.90
2023-03-02T21:20:37.444Z,99.90
2023-03-02T21:23:04.112Z,99.90
2023-03-02T21:25:30.602Z,99.90
2023-03-02T21:27:57.167Z,99.90
2023-03-02T21:30:23.665Z,99.90
2023-03-02T21:32:50.141Z,99.90
2023-03-02T21:35:16.658Z,99.90
2023-03-02T21:37:43.183Z,99.90
2023-03-02T21:40:09.830Z,99.90
2023-03-02T21:42:36.383Z,99.90
2023-03-02T21:45:03.426Z,99.90
2023-03-02T21:47:29.898Z,99.90
2023-03-02T21:49:56.380Z,99.90
2023-03-02T21:52:22.869Z,99.90
2023-03-02T21:54:49.433Z,99.90
2023-03-02T21:57:16.111Z,99.90
2023-03-02T21:59:42.614Z,99.90
2023-03-02T22:02:09.139Z,99.90
2023-03-02T22:04:35.788Z,99.90
2023-03-02T22:07:02.327Z,99.90
2023-03-02T22:09:28.838Z,99.90
2023-03-02T22:11:55.318Z,99.90
2023-03-02T22:14:21.795Z,99.90
2023-03-02T22:16:48.366Z,99.90
2023-03-02T22:19:14.925Z,99.90
2023-03-02T22:21:41.386Z,99.90
2023-03-02T22:24:07.868Z,99.90
2023-03-02T22:26:35.624Z,99.90
2023-03-02T22:29:02.304Z,99.90
2023-03-02T22:31:29.161Z,99.90
2023-03-02T22:33:55.774Z,99.90
2023-03-02T22:36:22.283Z,99.90
2023-03-02T22:38:48.765Z,99.90
2023-03-02T22:41:15.301Z,99.90
2023-03-02T22:43:41.880Z,99.90
2023-03-02T22:46:08.364Z,99.90
2023-03-02T22:48:34.882Z,99.90
2023-03-02T22:51:01.341Z,99.90
2023-03-02T22:53:27.928Z,99.90
2023-03-02T22:55:54.548Z,99.90
2023-03-02T22:58:21.116Z,99.90
2023-03-02T23:00:47.876Z,99.90
2023-03-02T23:03:17.211Z,99.90
2023-03-02T23:05:48.774Z,99.90
2023-03-02T23:08:15.335Z,99.90
2023-03-02T23:10:41.857Z,99.90
2023-03-02T23:13:08.352Z,99.90
2023-03-02T23:15:34.892Z,99.90
2023-03-02T23:18:01.407Z,99.90
2023-03-02T23:20:27.948Z,99.90
2023-03-02T23:22:54.990Z,99.90
2023-03-02T23:25:22.102Z,99.90
2023-03-02T23:27:48.566Z,99.90
2023-03-02T23:30:17.766Z,99.90
2023-03-02T23:32:44.275Z,99.90
2023-03-02T23:35:10.799Z,99.90
2023-03-02T23:37:37.320Z,99.90
2023-03-02T23:40:04.095Z,99.90
2023-03-02T23:42:30.605Z,99.90
2023-03-02T23:44:57.165Z,99.90
2023-03-02T23:47:23.619Z,99.90
2023-03-02T23:49:50.127Z,99.90
2023-03-02T23:54:46.082Z,99.90
2023-03-02T23:57:12.586Z,99.90
2023-03-02T23:59:39.056Z,99.90
